createdAt,value
2018-04-27T00:01:08.490Z,9.47
2018-04-27T00:03:36.172Z,7.10
2018-04-27T00:06:03.779Z,10.33
2018-04-27T00:08:31.589Z,8.50
2018-04-27T00:10:59.180Z,7.93
2018-04-27T00:13:27.966Z,5.00
2018-04-27T00:15:56.407Z,7.67
2018-04-27T00:18:23.891Z,6.13
2018-04-27T00:20:51.544Z,6.27
2018-04-27T00:23:19.301Z,5.87
2018-04-27T00:25:46.965Z,7.00
2018-04-27T00:28:15.376Z,6.60
2018-04-27T00:30:43.127Z,7.13
2018-04-27T00:33:11.081Z,11.60
2018-04-27T00:35:40.174Z,5.67
2018-04-27T00:38:08.169Z,7.10
2018-04-27T00:40:36.561Z,6.63
2018-04-27T00:43:05.384Z,5.40
2018-04-27T00:45:35.154Z,13.20
2018-04-27T00:48:04.277Z,4.23
2018-04-27T00:50:31.784Z,5.53
2018-04-27T00:52:59.405Z,5.93
2018-04-27T00:55:27.266Z,5.53
2018-04-27T00:57:55.405Z,6.63
2018-04-27T01:00:23.077Z,6.53
2018-04-27T01:02:51.083Z,7.23
2018-04-27T01:05:19.014Z,7.50
2018-04-27T01:07:47.225Z,7.47
2018-04-27T01:10:15.520Z,6.23
2018-04-27T01:12:43.757Z,7.70
2018-04-27T01:15:11.654Z,6.27
2018-04-27T01:17:39.329Z,6.07
2018-04-27T01:20:08.431Z,4.60
2018-04-27T01:22:36.509Z,5.33
2018-04-27T01:25:04.652Z,4.67
2018-04-27T01:27:33.029Z,6.03
2018-04-27T01:30:00.895Z,5.00
2018-04-27T01:32:29.870Z,6.00
2018-04-27T01:35:02.286Z,4.33
2018-04-27T01:37:30.729Z,5.00
2018-04-27T01:39:58.807Z,4.80
2018-04-27T01:42:26.843Z,5.30
2018-04-27T01:44:55.085Z,5.33
2018-04-27T01:47:23.002Z,6.30
2018-04-27T01:49:50.922Z,5.83
2018-04-27T01:52:18.916Z,7.33
2018-04-27T01:54:46.899Z,6.70
2018-04-27T01:57:14.705Z,4.47
2018-04-27T01:59:43.124Z,7.00
2018-04-27T02:02:12.198Z,5.83
2018-04-27T02:04:40.613Z,4.23
2018-04-27T02:07:08.568Z,4.30
2018-04-27T02:09:36.424Z,4.63
2018-04-27T02:12:04.984Z,6.07
2018-04-27T02:14:32.870Z,6.13
2018-04-27T02:17:00.660Z,4.03
2018-04-27T02:19:28.435Z,4.10
2018-04-27T02:21:56.021Z,4.47
2018-04-27T02:24:23.571Z,4.30
2018-04-27T02:26:51.279Z,3.97
2018-04-27T02:29:19.140Z,5.90
2018-04-27T02:31:46.865Z,4.80
2018-04-27T02:34:15.458Z,6.50
2018-04-27T02:36:44.483Z,6.07
2018-04-27T02:39:12.726Z,5.27
2018-04-27T02:41:40.884Z,4.47
2018-04-27T02:44:09.385Z,5.67
2018-04-27T02:46:37.385Z,6.03
2018-04-27T02:49:05.075Z,4.60
2018-04-27T02:51:32.950Z,5.30
2018-04-27T02:54:01.163Z,5.53
2018-04-27T02:56:29.035Z,4.40
2018-04-27T02:58:56.800Z,4.37
2018-04-27T03:01:25.102Z,5.80
2018-04-27T03:03:54.680Z,5.20
2018-04-27T03:06:22.456Z,4.23
2018-04-27T03:08:50.416Z,5.27
2018-04-27T03:11:19.833Z,4.13
2018-04-27T03:13:47.702Z,3.97
2018-04-27T03:16:16.481Z,5.33
2018-04-27T03:18:45.108Z,4.93
2018-04-27T03:21:12.874Z,5.90
2018-04-27T03:23:41.463Z,5.90
2018-04-27T03:26:09.170Z,4.50
2018-04-27T03:28:37.557Z,7.30
2018-04-27T03:31:05.957Z,7.13
2018-04-27T03:33:34.298Z,4.60
2018-04-27T03:36:02.076Z,6.40
2018-04-27T03:38:30.146Z,6.33
2018-04-27T03:40:58.107Z,5.70
2018-04-27T03:43:26.573Z,6.13
2018-04-27T03:45:54.581Z,6.33
2018-04-27T03:48:22.612Z,5.10
2018-04-27T03:50:50.349Z,5.93
2018-04-27T03:53:19.000Z,4.90
2018-04-27T03:55:46.974Z,3.80
2018-04-27T03:58:15.024Z,4.70
2018-04-27T04:00:42.855Z,4.77
2018-04-27T04:03:10.537Z,6.13
2018-04-27T04:05:38.281Z,4.00
2018-04-27T04:08:06.285Z,5.03
2018-04-27T04:10:34.112Z,4.30
2018-04-27T04:13:01.955Z,5.03
2018-04-27T04:15:29.732Z,6.30
2018-04-27T04:17:57.902Z,7.07
2018-04-27T04:20:26.445Z,3.80
2018-04-27T04:22:55.190Z,4.57
2018-04-27T04:25:23.399Z,7.40
2018-04-27T04:27:51.178Z,4.50
2018-04-27T04:30:19.460Z,5.70
2018-04-27T04:32:47.349Z,3.77
2018-04-27T04:35:15.977Z,5.07
2018-04-27T04:37:48.684Z,4.10
2018-04-27T04:40:16.346Z,5.97
2018-04-27T04:42:45.327Z,5.07
2018-04-27T04:45:13.550Z,4.97
2018-04-27T04:47:41.674Z,4.47
2018-04-27T04:50:09.460Z,4.43
2018-04-27T04:52:37.345Z,4.30
2018-04-27T04:55:05.693Z,6.60
2018-04-27T04:57:34.048Z,5.10
2018-04-27T05:00:01.900Z,4.00
2018-04-27T05:02:29.874Z,4.43
2018-04-27T05:04:58.616Z,4.50
2018-04-27T05:07:30.221Z,4.30
2018-04-27T05:10:03.603Z,4.17
2018-04-27T05:12:32.372Z,5.63
2018-04-27T05:15:00.951Z,5.70
2018-04-27T05:17:28.539Z,4.90
2018-04-27T05:19:56.494Z,6.80
2018-04-27T05:22:25.946Z,4.57
2018-04-27T05:24:56.140Z,4.57
2018-04-27T05:27:23.957Z,5.23
2018-04-27T05:29:51.925Z,4.83
2018-04-27T05:32:19.515Z,4.30
2018-04-27T05:34:47.363Z,5.20
2018-04-27T05:37:16.121Z,4.03
2018-04-27T05:39:43.955Z,4.63
2018-04-27T05:42:11.826Z,4.80
2018-04-27T05:44:40.616Z,4.30
2018-04-27T05:47:08.396Z,5.73
2018-04-27T05:49:36.142Z,4.17
2018-04-27T05:52:04.150Z,4.60
2018-04-27T05:54:32.054Z,4.23
2018-04-27T05:57:00.791Z,5.13
2018-04-27T05:59:29.120Z,11.97
2018-04-27T06:01:57.363Z,4.47
2018-04-27T06:04:25.283Z,3.90
2018-04-27T06:06:54.279Z,4.70
2018-04-27T06:09:22.083Z,5.87
2018-04-27T06:11:49.947Z,4.50
2018-04-27T06:14:19.116Z,4.33
2018-04-27T06:16:47.186Z,5.10
2018-04-27T06:19:14.869Z,3.50
2018-04-27T06:21:42.943Z,4.80
2018-04-27T06:24:10.994Z,4.97
2018-04-27T06:26:38.946Z,4.00
2018-04-27T06:29:06.616Z,5.10
2018-04-27T06:31:34.370Z,5.20
2018-04-27T06:34:02.160Z,4.67
2018-04-27T06:36:29.833Z,6.53
2018-04-27T06:38:58.592Z,8.60
2018-04-27T06:41:26.320Z,4.40
2018-04-27T06:43:54.065Z,4.43
2018-04-27T06:46:21.756Z,4.70
2018-04-27T06:48:49.509Z,4.83
2018-04-27T06:51:17.228Z,5.40
2018-04-27T06:53:45.405Z,4.77
2018-04-27T06:56:13.120Z,4.43
2018-04-27T06:58:40.770Z,4.93
2018-04-27T07:01:08.784Z,4.33
2018-04-27T07:03:37.500Z,6.23
2018-04-27T07:06:05.116Z,4.57
2018-04-27T07:08:32.822Z,4.87
2018-04-27T07:11:01.276Z,5.30
2018-04-27T07:13:28.881Z,4.43
2018-04-27T07:15:56.903Z,3.77
2018-04-27T07:18:25.510Z,4.53
2018-04-27T07:20:53.320Z,4.73
2018-04-27T07:23:21.223Z,4.43
2018-04-27T07:25:49.262Z,4.30
2018-04-27T07:28:17.054Z,4.43
2018-04-27T07:30:44.862Z,4.93
2018-04-27T07:33:12.689Z,6.30
2018-04-27T07:35:42.024Z,4.37
2018-04-27T07:38:10.525Z,4.20
2018-04-27T07:40:38.111Z,4.47
2018-04-27T07:43:06.143Z,6.87
2018-04-27T07:45:33.814Z,5.07
2018-04-27T07:48:01.443Z,4.30
2018-04-27T07:50:29.251Z,4.30
2018-04-27T07:52:57.873Z,3.90
2018-04-27T07:55:25.809Z,4.23
2018-04-27T07:57:53.661Z,4.23
2018-04-27T08:00:26.094Z,4.30
2018-04-27T08:02:54.529Z,4.03
2018-04-27T08:05:22.529Z,3.97
2018-04-27T08:07:50.237Z,5.90
2018-04-27T08:10:17.882Z,4.40
2018-04-27T08:12:46.033Z,4.13
2018-04-27T08:15:13.726Z,5.47
2018-04-27T08:17:42.497Z,4.37
2018-04-27T08:20:10.774Z,4.20
2018-04-27T08:22:38.616Z,5.00
2018-04-27T08:25:06.614Z,6.03
2018-04-27T08:27:35.706Z,4.80
2018-04-27T08:30:03.466Z,4.37
2018-04-27T08:32:31.314Z,4.37
2018-04-27T08:34:59.048Z,4.37
2018-04-27T08:37:26.688Z,6.67
2018-04-27T08:39:54.414Z,7.27
2018-04-27T08:42:22.162Z,5.30
2018-04-27T08:44:50.936Z,5.23
2018-04-27T08:47:18.586Z,4.70
2018-04-27T08:49:46.326Z,6.40
2018-04-27T08:52:13.963Z,5.63
2018-04-27T08:54:41.865Z,5.70
2018-04-27T08:57:09.569Z,6.37
2018-04-27T08:59:37.325Z,4.53
2018-04-27T09:02:05.329Z,8.07
2018-04-27T09:04:34.343Z,90.27
2018-04-27T09:07:02.233Z,83.13
2018-04-27T09:09:30.924Z,86.53
2018-04-27T09:11:58.878Z,107.50
2018-04-27T09:14:26.554Z,90.23
2018-04-27T09:16:54.247Z,78.57
2018-04-27T09:19:21.993Z,86.17
2018-04-27T09:21:49.854Z,93.80
2018-04-27T09:24:18.177Z,83.03
2018-04-27T09:26:45.903Z,87.03
2018-04-27T09:29:13.763Z,83.60
2018-04-27T09:31:42.564Z,81.53
2018-04-27T09:34:10.969Z,77.90
2018-04-27T09:36:38.856Z,76.57
2018-04-27T09:39:07.516Z,76.23
2018-04-27T09:41:36.657Z,73.13
2018-04-27T09:44:04.783Z,93.47
2018-04-27T09:46:32.706Z,81.83
2018-04-27T09:49:00.241Z,97.03
2018-04-27T09:51:28.810Z,96.47
2018-04-27T09:53:58.128Z,85.63
2018-04-27T09:56:26.642Z,93.87
2018-04-27T09:58:54.528Z,93.10
2018-04-27T10:01:22.627Z,90.17
2018-04-27T10:03:50.975Z,77.33
2018-04-27T10:06:19.870Z,77.33
2018-04-27T10:08:47.896Z,74.77
2018-04-27T10:11:15.785Z,72.57
2018-04-27T10:13:43.958Z,173.47
2018-04-27T10:16:11.975Z,97.13
2018-04-27T10:18:39.856Z,86.53
2018-04-27T10:21:07.744Z,85.70
2018-04-27T10:23:35.677Z,79.37
2018-04-27T10:26:03.299Z,77.77
2018-04-27T10:28:31.433Z,77.83
2018-04-27T10:31:00.171Z,79.57
2018-04-27T10:33:27.953Z,82.13
2018-04-27T10:35:56.829Z,71.17
2018-04-27T10:38:25.118Z,74.50
2018-04-27T10:40:52.969Z,74.17
2018-04-27T10:43:20.664Z,72.33
2018-04-27T10:45:48.289Z,78.30
2018-04-27T10:48:16.103Z,78.87
2018-04-27T10:50:44.052Z,79.23
2018-04-27T10:53:11.589Z,72.30
2018-04-27T10:55:39.323Z,71.93
2018-04-27T10:58:07.311Z,72.37
2018-04-27T11:00:36.015Z,73.10
2018-04-27T11:03:03.814Z,82.70
2018-04-27T11:05:31.749Z,76.30
2018-04-27T11:08:01.061Z,75.90
2018-04-27T11:10:28.980Z,83.27
2018-04-27T11:12:57.674Z,88.43
2018-04-27T11:15:26.165Z,74.17
2018-04-27T11:17:54.810Z,71.20
2018-04-27T11:20:22.596Z,96.73
2018-04-27T11:22:50.477Z,98.03
2018-04-27T11:25:18.242Z,99.60
2018-04-27T11:27:45.820Z,96.00
2018-04-27T11:30:13.567Z,97.67
2018-04-27T11:32:42.306Z,96.53
2018-04-27T11:35:10.666Z,109.87
2018-04-27T11:37:38.432Z,107.87
2018-04-27T11:40:07.204Z,102.20
2018-04-27T11:42:35.685Z,103.70
2018-04-27T11:45:03.420Z,107.07
2018-04-27T11:47:30.934Z,102.93
2018-04-27T11:49:58.397Z,106.50
2018-04-27T11:52:26.033Z,100.93
2018-04-27T11:54:53.757Z,100.10
2018-04-27T11:57:21.371Z,102.03
2018-04-27T11:59:49.584Z,103.47
2018-04-27T12:02:17.871Z,98.90
2018-04-27T12:04:45.327Z,97.20
2018-04-27T12:07:13.236Z,90.87
2018-04-27T12:09:40.847Z,90.47
2018-04-27T12:12:08.320Z,96.47
2018-04-27T12:14:35.855Z,102.03
2018-04-27T12:17:03.643Z,96.77
2018-04-27T12:19:31.566Z,101.10
2018-04-27T12:22:00.082Z,99.80
2018-04-27T12:24:28.495Z,97.97
2018-04-27T12:26:56.339Z,97.63
2018-04-27T12:29:25.625Z,88.77
2018-04-27T12:31:55.202Z,92.20
2018-04-27T12:34:23.468Z,95.67
2018-04-27T12:36:52.150Z,96.50
2018-04-27T12:39:20.336Z,96.30
2018-04-27T12:41:48.692Z,90.97
2018-04-27T12:44:16.785Z,91.10
2018-04-27T12:46:45.061Z,97.63
2018-04-27T12:49:13.071Z,93.93
2018-04-27T12:51:41.319Z,95.30
2018-04-27T12:54:10.431Z,88.70
2018-04-27T12:56:38.432Z,89.13
2018-04-27T12:59:06.094Z,100.13
2018-04-27T13:01:33.904Z,91.03
2018-04-27T13:04:03.328Z,93.70
2018-04-27T13:06:31.443Z,87.30
2018-04-27T13:08:59.727Z,91.20
2018-04-27T13:11:27.931Z,90.37
2018-04-27T13:13:56.873Z,86.20
2018-04-27T13:16:24.858Z,13.17
2018-04-27T13:18:52.715Z,9.80
2018-04-27T13:21:20.616Z,8.23
2018-04-27T13:23:48.900Z,14.53
2018-04-27T13:26:17.321Z,12.37
2018-04-27T13:28:46.239Z,8.53
2018-04-27T13:31:14.747Z,8.90
2018-04-27T13:33:42.591Z,16.87
2018-04-27T13:36:10.255Z,9.00
2018-04-27T13:38:38.000Z,15.33
2018-04-27T13:41:05.979Z,22.70
2018-04-27T13:43:33.982Z,18.33
2018-04-27T13:46:02.154Z,21.73
2018-04-27T13:48:30.656Z,17.40
2018-04-27T13:50:58.710Z,19.43
2018-04-27T13:53:26.610Z,27.90
2018-04-27T13:55:55.268Z,23.23
2018-04-27T13:58:24.125Z,21.90
2018-04-27T14:00:52.909Z,22.63
2018-04-27T14:03:21.475Z,23.10
2018-04-27T14:05:49.298Z,21.53
2018-04-27T14:08:17.185Z,21.07
2018-04-27T14:10:45.315Z,16.60
2018-04-27T14:13:13.115Z,19.43
2018-04-27T14:15:41.206Z,21.47
2018-04-27T14:18:09.130Z,23.93
2018-04-27T14:20:37.672Z,23.43
2018-04-27T14:23:05.496Z,19.57
2018-04-27T14:25:33.788Z,21.17
2018-04-27T14:28:02.726Z,24.53
2018-04-27T14:30:30.753Z,22.13
2018-04-27T14:32:59.582Z,23.53
2018-04-27T14:35:27.711Z,20.80
2018-04-27T14:37:56.102Z,20.87
2018-04-27T14:40:25.688Z,19.00
2018-04-27T14:42:54.243Z,18.60
2018-04-27T14:45:22.184Z,23.10
2018-04-27T14:47:51.284Z,22.97
2018-04-27T14:50:19.213Z,27.53
2018-04-27T14:52:47.254Z,19.73
2018-04-27T14:55:15.736Z,20.17
2018-04-27T14:57:43.646Z,15.80
2018-04-27T15:00:12.901Z,20.87
2018-04-27T15:02:40.977Z,17.53
2018-04-27T15:05:09.689Z,24.83
2018-04-27T15:07:38.323Z,18.43
2018-04-27T15:10:06.991Z,21.20
2018-04-27T15:12:35.405Z,17.00
2018-04-27T15:15:03.231Z,18.70
2018-04-27T15:17:32.176Z,15.50
2018-04-27T15:20:00.099Z,19.30
2018-04-27T15:22:29.025Z,17.50
2018-04-27T15:24:57.751Z,18.50
2018-04-27T15:27:25.607Z,19.53
2018-04-27T15:29:53.851Z,15.97
2018-04-27T15:32:21.814Z,21.27
2018-04-27T15:34:50.356Z,19.83
2018-04-27T15:37:18.315Z,15.40
2018-04-27T15:39:47.495Z,15.87
2018-04-27T15:42:15.324Z,19.17
2018-04-27T15:44:43.580Z,17.40
2018-04-27T15:47:11.872Z,16.10
2018-04-27T15:49:40.203Z,12.90
2018-04-27T15:52:08.388Z,16.87
2018-04-27T15:54:36.342Z,20.80
2018-04-27T15:57:04.991Z,16.13
2018-04-27T15:59:32.860Z,18.83
2018-04-27T16:02:01.828Z,15.03
2018-04-27T16:04:29.984Z,20.90
2018-04-27T16:06:58.534Z,20.07
2018-04-27T16:09:26.379Z,15.47
2018-04-27T16:11:54.235Z,13.10
2018-04-27T16:14:22.518Z,14.27
2018-04-27T16:16:50.591Z,18.37
2018-04-27T16:19:19.208Z,18.80
2018-04-27T16:21:47.356Z,18.50
2018-04-27T16:24:15.524Z,12.40
2018-04-27T16:26:43.487Z,14.80
2018-04-27T16:29:12.683Z,15.80
2018-04-27T16:31:41.948Z,15.57
2018-04-27T16:34:09.965Z,13.73
2018-04-27T16:36:38.155Z,12.70
2018-04-27T16:39:06.338Z,17.93
2018-04-27T16:41:34.377Z,18.70
2018-04-27T16:44:03.212Z,14.70
2018-04-27T16:46:33.799Z,14.67
2018-04-27T16:49:01.972Z,13.30
2018-04-27T16:51:30.468Z,14.63
2018-04-27T16:53:58.961Z,17.93
2018-04-27T16:56:27.493Z,15.40
2018-04-27T16:58:57.164Z,11.70
2018-04-27T17:01:26.650Z,14.90
2018-04-27T17:03:54.973Z,12.57
2018-04-27T17:06:25.019Z,14.10
2018-04-27T17:08:52.750Z,15.17
2018-04-27T17:11:21.142Z,14.87
2018-04-27T17:13:53.704Z,13.50
2018-04-27T17:16:21.664Z,13.47
2018-04-27T17:18:49.464Z,15.90
2018-04-27T17:21:17.483Z,10.67
2018-04-27T17:23:45.756Z,11.63
2018-04-27T17:26:14.210Z,12.43
2018-04-27T17:28:43.135Z,12.07
2018-04-27T17:31:11.577Z,11.97
2018-04-27T17:33:39.839Z,16.13
2018-04-27T17:36:08.845Z,11.97
2018-04-27T17:38:37.097Z,11.87
2018-04-27T17:41:06.366Z,12.47
2018-04-27T17:43:36.034Z,13.27
2018-04-27T17:46:04.588Z,12.17
2018-04-27T17:48:32.729Z,12.43
2018-04-27T17:51:02.029Z,11.27
2018-04-27T17:53:30.154Z,11.80
2018-04-27T17:55:58.717Z,11.60
2018-04-27T17:58:26.813Z,15.10
2018-04-27T18:00:54.713Z,13.43
2018-04-27T18:03:22.809Z,14.20
2018-04-27T18:05:50.776Z,11.30
2018-04-27T18:08:20.397Z,12.00
2018-04-27T18:10:48.315Z,14.33
2018-04-27T18:13:17.483Z,11.10
2018-04-27T18:15:46.082Z,10.73
2018-04-27T18:18:14.935Z,12.27
2018-04-27T18:20:43.117Z,11.60
2018-04-27T18:23:13.982Z,12.27
2018-04-27T18:25:43.420Z,12.40
2018-04-27T18:28:12.018Z,10.77
2018-04-27T18:30:40.221Z,12.63
2018-04-27T18:33:08.517Z,10.43
2018-04-27T18:35:36.502Z,13.80
2018-04-27T18:38:05.390Z,13.33
2018-04-27T18:40:33.139Z,17.33
2018-04-27T18:43:01.698Z,13.10
2018-04-27T18:45:29.752Z,10.90
2018-04-27T18:47:57.465Z,11.17
2018-04-27T18:50:25.264Z,11.70
2018-04-27T18:52:55.058Z,10.97
2018-04-27T18:55:23.146Z,10.60
2018-04-27T18:57:51.936Z,14.00
2018-04-27T19:00:21.233Z,11.10
2018-04-27T19:02:49.796Z,12.17
2018-04-27T19:05:17.555Z,11.43
2018-04-27T19:07:45.414Z,12.13
2018-04-27T19:10:13.965Z,12.17
2018-04-27T19:12:41.826Z,12.60
2018-04-27T19:15:09.780Z,13.33
2018-04-27T19:17:38.332Z,13.77
2018-04-27T19:20:06.483Z,13.30
2018-04-27T19:22:35.185Z,12.40
2018-04-27T19:25:03.921Z,10.80
2018-04-27T19:27:31.759Z,11.60
2018-04-27T19:30:00.553Z,16.40
2018-04-27T19:32:29.579Z,15.60
2018-04-27T19:34:58.162Z,11.70
2018-04-27T19:37:26.596Z,10.33
2018-04-27T19:39:55.427Z,10.27
2018-04-27T19:42:23.717Z,12.60
2018-04-27T19:44:52.181Z,12.00
2018-04-27T19:47:19.922Z,12.70
2018-04-27T19:49:48.680Z,12.10
2018-04-27T19:52:16.579Z,12.47
2018-04-27T19:54:44.371Z,13.70
2018-04-27T19:57:12.354Z,12.27
2018-04-27T19:59:40.177Z,14.17
2018-04-27T20:02:08.544Z,12.73
2018-04-27T20:04:36.299Z,11.13
2018-04-27T20:07:04.680Z,11.80
2018-04-27T20:09:32.984Z,12.10
2018-04-27T20:12:01.530Z,12.77
2018-04-27T20:14:30.057Z,12.77
2018-04-27T20:16:58.362Z,12.57
2018-04-27T20:19:26.342Z,11.13
2018-04-27T20:21:54.400Z,12.43
2018-04-27T20:24:23.229Z,12.90
2018-04-27T20:26:51.634Z,16.53
2018-04-27T20:29:19.933Z,12.20
2018-04-27T20:31:48.340Z,13.13
2018-04-27T20:34:18.279Z,10.93
2018-04-27T20:36:46.512Z,12.13
2018-04-27T20:39:15.166Z,14.17
2018-04-27T20:41:44.963Z,12.00
2018-04-27T20:44:13.395Z,13.37
2018-04-27T20:46:41.770Z,12.63
2018-04-27T20:49:10.594Z,12.57
2018-04-27T20:51:39.845Z,12.10
2018-04-27T20:54:08.130Z,11.77
2018-04-27T20:56:36.083Z,13.93
2018-04-27T20:59:04.789Z,12.33
2018-04-27T21:01:32.662Z,14.40
2018-04-27T21:04:00.604Z,12.80
2018-04-27T21:06:28.693Z,12.07
2018-04-27T21:08:56.922Z,12.47
2018-04-27T21:11:24.902Z,13.00
2018-04-27T21:13:53.418Z,12.80
2018-04-27T21:16:21.134Z,12.40
2018-04-27T21:18:48.950Z,16.27
2018-04-27T21:21:17.094Z,11.13
2018-04-27T21:23:45.135Z,11.60
2018-04-27T21:26:13.311Z,11.30
2018-04-27T21:28:44.697Z,14.10
2018-04-27T21:31:13.037Z,10.07
2018-04-27T21:33:40.980Z,13.87
2018-04-27T21:36:09.797Z,11.00
2018-04-27T21:38:37.894Z,14.17
2018-04-27T21:41:05.800Z,10.60
2018-04-27T21:43:33.798Z,12.07
2018-04-27T21:46:01.958Z,11.50
2018-04-27T21:48:30.580Z,11.00
2018-04-27T21:50:59.408Z,12.53
2018-04-27T21:53:27.417Z,11.20
2018-04-27T21:55:56.023Z,12.40
2018-04-27T22:00:59.821Z,11.57
2018-04-27T22:03:29.420Z,10.07
2018-04-27T22:05:58.197Z,11.53
2018-04-27T22:08:26.449Z,10.87
2018-04-27T22:10:55.114Z,10.87
2018-04-27T22:13:23.011Z,80.63
2018-04-27T22:15:50.840Z,86.83
2018-04-27T22:18:19.046Z,86.63
2018-04-27T22:20:47.049Z,87.37
2018-04-27T22:23:14.987Z,80.10
2018-04-27T22:25:43.655Z,80.50
2018-04-27T22:28:11.472Z,75.93
2018-04-27T22:30:39.351Z,82.03
2018-04-27T22:33:07.579Z,82.97
2018-04-27T22:35:36.031Z,83.17
2018-04-27T22:38:05.730Z,87.63
2018-04-27T22:40:33.540Z,81.53
2018-04-27T22:43:03.000Z,82.33
2018-04-27T22:45:30.859Z,83.13
2018-04-27T22:47:59.013Z,84.20
2018-04-27T22:50:27.088Z,84.53
2018-04-27T22:52:55.154Z,87.43
2018-04-27T22:55:23.148Z,82.07
2018-04-27T22:57:51.920Z,83.87
2018-04-27T23:00:19.912Z,81.40
2018-04-27T23:02:47.958Z,82.10
2018-04-27T23:05:16.660Z,84.53
2018-04-27T23:07:44.414Z,87.10
2018-04-27T23:10:12.764Z,85.13
2018-04-27T23:12:40.831Z,91.40
2018-04-27T23:15:09.546Z,89.10
2018-04-27T23:17:38.248Z,92.03
2018-04-27T23:20:06.383Z,89.03
2018-04-27T23:22:34.617Z,93.80
2018-04-27T23:25:02.942Z,92.13
2018-04-27T23:27:33.297Z,96.70
2018-04-27T23:30:03.159Z,93.77
2018-04-27T23:32:31.207Z,91.30
2018-04-27T23:35:00.324Z,95.87
2018-04-27T23:37:28.760Z,99.40
2018-04-27T23:39:57.448Z,100.93
2018-04-27T23:42:25.505Z,90.50
2018-04-27T23:44:53.960Z,87.97
2018-04-27T23:49:57.793Z,96.50
2018-04-27T23:52:30.870Z,99.73
2018-04-27T23:54:59.285Z,96.63
2018-04-27T23:57:29.151Z,21.60
2018-04-27T23:59:58.050Z,15.73
